Port Isabel, Texas
Current Conditions -  °F | °C
As of 7:55 AM on Monday 20 Oct 2014 (Local Time) from KSPL Reporting Station
Few Clouds Few Clouds  
Wind Chill: 79°   Ceiling: Unl
Heat Index: 81°   Visibility: 5mi
Dew Point: 68°   Wind: 9mph
Humidity: 69%   Direction: 90°E
Pressure: 29.92"   Gusts: NA
Location:  26.07°N, 97.21°W
Report Text: KSPL 201255Z AUTO 09008KT 5SM FEW032 26/20 A2992 RMK AO1
Loading
Personal Weather Stations






























Interactive Weather Map New forecast layout! Learn more

10-Day Weather Forecast

Advertisements
Track Severe Weather on mobile